createdAt,value
2023-01-09T00:02:56.680Z,15.77
2023-01-09T00:05:59.307Z,15.20
2023-01-09T00:09:02.055Z,14.60
2023-01-09T00:12:05.119Z,14.35
2023-01-09T00:15:08.380Z,15.20
2023-01-09T00:18:11.188Z,14.93
2023-01-09T00:21:14.439Z,14.23
2023-01-09T00:24:17.167Z,15.10
2023-01-09T00:27:19.472Z,14.98
2023-01-09T00:30:22.103Z,14.35
2023-01-09T00:33:33.762Z,16.00
2023-01-09T00:36:36.501Z,14.90
2023-01-09T00:39:40.247Z,15.18
2023-01-09T00:42:46.673Z,14.38
2023-01-09T00:45:49.261Z,14.32
2023-01-09T00:48:52.251Z,14.43
2023-01-09T00:51:55.463Z,13.73
2023-01-09T00:54:59.596Z,13.90
2023-01-09T00:58:03.085Z,13.40
2023-01-09T01:01:06.020Z,13.55
2023-01-09T01:04:27.010Z,12.97
2023-01-09T01:07:38.586Z,13.93
2023-01-09T01:10:41.248Z,13.30
2023-01-09T01:13:43.919Z,12.70
2023-01-09T01:16:46.328Z,12.43
2023-01-09T01:19:49.131Z,11.77
2023-01-09T01:22:51.543Z,12.23
2023-01-09T01:25:54.248Z,12.40
2023-01-09T01:28:58.848Z,13.02
2023-01-09T01:32:01.521Z,12.68
2023-01-09T01:35:04.214Z,12.60
2023-01-09T01:38:06.847Z,11.40
2023-01-09T01:41:09.845Z,11.15
2023-01-09T01:44:50.056Z,11.60
2023-01-09T01:48:07.237Z,11.40
2023-01-09T01:51:10.621Z,10.87
2023-01-09T01:54:19.855Z,11.00
2023-01-09T01:57:22.829Z,11.00
2023-01-09T02:00:31.459Z,10.45
2023-01-09T02:03:35.118Z,11.40
2023-01-09T02:06:38.708Z,11.73
2023-01-09T02:09:42.066Z,11.23
2023-01-09T02:12:44.773Z,10.45
2023-01-09T02:15:58.065Z,11.60
2023-01-09T02:19:26.335Z,11.85
2023-01-09T02:23:05.929Z,10.73
2023-01-09T02:26:11.402Z,11.80
2023-01-09T02:29:35.981Z,11.82
2023-01-09T02:32:56.680Z,11.25
2023-01-09T02:36:16.245Z,11.73
2023-01-09T02:39:33.278Z,10.43
2023-01-09T02:42:37.541Z,11.55
2023-01-09T02:45:40.265Z,11.43
2023-01-09T02:48:45.326Z,11.77
2023-01-09T02:52:17.492Z,12.80
2023-01-09T02:55:50.726Z,10.63
2023-01-09T02:59:02.517Z,11.27
2023-01-09T03:02:17.164Z,11.75
2023-01-09T03:05:22.565Z,11.02
2023-01-09T03:08:32.875Z,11.43
2023-01-09T03:11:44.225Z,10.83
2023-01-09T03:17:57.353Z,11.82
2023-01-09T03:21:00.019Z,10.52
2023-01-09T03:24:02.984Z,11.05
2023-01-09T03:27:09.360Z,10.90
2023-01-09T03:30:12.422Z,11.30
2023-01-09T03:36:18.849Z,11.68
2023-01-09T03:39:21.225Z,12.20
2023-01-09T03:42:23.829Z,11.67
2023-01-09T03:45:26.257Z,10.68
2023-01-09T03:48:28.984Z,12.18
2023-01-09T03:51:31.270Z,11.30
2023-01-09T03:54:34.016Z,11.60
2023-01-09T03:57:36.372Z,11.43
2023-01-09T04:00:40.442Z,11.57
2023-01-09T04:03:43.108Z,11.98
2023-01-09T04:06:45.502Z,12.30
2023-01-09T04:09:48.266Z,12.00
2023-01-09T04:12:50.635Z,11.67
2023-01-09T04:15:53.379Z,11.63
2023-01-09T04:18:55.866Z,12.50
2023-01-09T04:21:58.522Z,11.48
2023-01-09T04:25:01.050Z,11.57
2023-01-09T04:28:03.856Z,10.40
2023-01-09T04:31:06.355Z,11.20
2023-01-09T04:34:09.023Z,11.73
2023-01-09T04:37:11.579Z,11.27
2023-01-09T04:40:15.072Z,12.20
2023-01-09T04:43:17.479Z,11.33
2023-01-09T04:46:20.126Z,11.40
2023-01-09T04:49:23.357Z,11.57
2023-01-09T04:52:26.151Z,12.10
2023-01-09T04:55:28.564Z,12.88
2023-01-09T04:58:31.146Z,12.57
2023-01-09T05:01:34.009Z,11.60
2023-01-09T05:04:36.937Z,12.23
2023-01-09T05:07:39.487Z,11.68
2023-01-09T05:10:42.219Z,11.63
2023-01-09T05:13:44.706Z,12.70
2023-01-09T05:16:47.478Z,11.63
2023-01-09T05:19:49.876Z,11.70
2023-01-09T05:22:52.480Z,12.02
2023-01-09T05:28:57.623Z,12.27
2023-01-09T05:32:00.041Z,11.90
2023-01-09T05:35:02.806Z,11.90
2023-01-09T05:38:05.080Z,11.52
2023-01-09T05:41:07.775Z,12.52
2023-01-09T05:44:10.116Z,12.27
2023-01-09T05:47:12.961Z,11.57
2023-01-09T05:50:15.473Z,11.77
2023-01-09T05:53:18.604Z,11.63
2023-01-09T05:56:21.085Z,11.95
2023-01-09T05:59:23.728Z,12.03
2023-01-09T06:02:26.227Z,12.85
2023-01-09T06:05:28.958Z,13.15
2023-01-09T06:08:31.303Z,11.90
2023-01-09T06:11:38.436Z,11.88
2023-01-09T06:14:40.813Z,11.80
2023-01-09T06:17:43.482Z,12.05
2023-01-09T06:20:46.118Z,12.48
2023-01-09T06:23:48.737Z,12.65
2023-01-09T06:26:51.051Z,12.02
2023-01-09T06:29:53.634Z,11.87
2023-01-09T06:32:56.027Z,12.25
2023-01-09T06:35:58.721Z,13.15
2023-01-09T06:39:01.400Z,12.23
2023-01-09T06:42:04.489Z,12.52
2023-01-09T06:45:07.296Z,12.23
2023-01-09T06:48:10.699Z,11.50
2023-01-09T06:51:15.851Z,12.40
2023-01-09T06:54:19.597Z,11.85
2023-01-09T06:57:22.144Z,12.20
2023-01-09T07:00:25.439Z,11.03
2023-01-09T07:03:27.730Z,11.10
2023-01-09T07:06:30.654Z,11.63
2023-01-09T07:09:33.019Z,12.02
2023-01-09T07:12:35.829Z,12.50
2023-01-09T07:15:38.387Z,10.97
2023-01-09T07:18:41.181Z,11.48
2023-01-09T07:21:43.595Z,12.50
2023-01-09T07:24:46.590Z,12.60
2023-01-09T07:27:49.649Z,11.93
2023-01-09T07:30:52.884Z,11.63
2023-01-09T07:33:55.473Z,11.15
2023-01-09T07:36:58.286Z,12.98
2023-01-09T07:40:00.922Z,11.30
2023-01-09T07:43:04.016Z,12.32
2023-01-09T07:46:06.833Z,11.80
2023-01-09T07:49:09.598Z,10.13
2023-01-09T07:52:11.998Z,11.63
2023-01-09T07:55:16.656Z,11.35
2023-01-09T07:58:19.779Z,11.55
2023-01-09T08:01:22.698Z,10.70
2023-01-09T08:04:25.589Z,11.57
2023-01-09T08:07:28.135Z,11.27
2023-01-09T08:10:31.190Z,11.32
2023-01-09T08:13:33.591Z,12.02
2023-01-09T08:16:36.505Z,11.40
2023-01-09T08:19:38.996Z,11.05
2023-01-09T08:22:42.921Z,11.02
2023-01-09T08:25:45.396Z,10.82
2023-01-09T08:28:48.470Z,11.30
2023-01-09T08:31:56.576Z,13.23
2023-01-09T08:34:59.931Z,10.10
2023-01-09T08:38:02.408Z,11.68
2023-01-09T08:41:25.067Z,11.75
2023-01-09T08:44:46.120Z,12.60
2023-01-09T08:47:49.156Z,11.87
2023-01-09T08:50:52.483Z,12.15
2023-01-09T08:53:55.124Z,11.88
2023-01-09T08:56:57.680Z,12.30
2023-01-09T09:00:00.409Z,12.15
2023-01-09T09:03:02.939Z,12.20
2023-01-09T09:06:09.255Z,12.57
2023-01-09T09:09:12.133Z,11.80
2023-01-09T09:12:14.844Z,11.90
2023-01-09T09:15:23.895Z,13.18
2023-01-09T09:18:26.544Z,11.93
2023-01-09T09:21:28.997Z,12.35
2023-01-09T09:24:31.614Z,12.15
2023-01-09T09:27:36.414Z,9.95
2023-01-09T09:30:39.462Z,13.85
2023-01-09T09:33:41.852Z,13.80
2023-01-09T09:36:44.545Z,13.13
2023-01-09T09:39:47.010Z,13.77
2023-01-09T09:43:36.176Z,12.77
2023-01-09T09:46:57.118Z,12.05
2023-01-09T09:50:24.727Z,13.20
2023-01-09T09:53:41.523Z,11.98
2023-01-09T09:56:52.964Z,12.98
2023-01-09T09:59:56.615Z,11.50
2023-01-09T10:03:07.058Z,12.40
2023-01-09T10:06:32.819Z,13.13
2023-01-09T10:09:57.641Z,14.25
2023-01-09T10:13:20.851Z,13.30
2023-01-09T10:16:32.132Z,15.50
2023-01-09T10:20:17.630Z,14.35
2023-01-09T10:23:49.720Z,13.17
2023-01-09T10:26:54.141Z,14.50
2023-01-09T10:30:05.419Z,13.68
2023-01-09T10:33:26.657Z,15.20
2023-01-09T10:36:31.707Z,15.73
2023-01-09T10:39:40.451Z,15.17
2023-01-09T10:42:48.705Z,15.05
2023-01-09T10:45:54.784Z,15.07
2023-01-09T10:49:03.988Z,15.02
2023-01-09T10:52:10.946Z,15.38
2023-01-09T10:55:17.139Z,15.33
2023-01-09T10:58:22.177Z,14.23
2023-01-09T11:01:27.242Z,15.43
2023-01-09T11:04:35.170Z,14.75
2023-01-09T11:07:41.682Z,14.65
2023-01-09T11:10:55.787Z,14.83
2023-01-09T11:14:15.230Z,15.57
2023-01-09T11:17:21.488Z,16.25
2023-01-09T11:20:27.794Z,15.77
2023-01-09T11:23:33.828Z,17.20
2023-01-09T11:26:36.560Z,16.97
2023-01-09T11:29:40.425Z,15.27
2023-01-09T11:32:44.689Z,15.23
2023-01-09T11:35:57.511Z,16.45
2023-01-09T11:39:02.599Z,15.68
2023-01-09T11:42:09.557Z,14.90
2023-01-09T11:45:15.495Z,15.85
2023-01-09T11:48:38.387Z,15.05
2023-01-09T11:51:42.339Z,15.77
2023-01-09T11:54:50.937Z,16.58
2023-01-09T11:57:53.423Z,15.20
2023-01-09T12:01:20.397Z,14.80
2023-01-09T12:04:29.137Z,15.60
2023-01-09T12:07:50.390Z,15.60
2023-01-09T12:11:06.664Z,16.15
2023-01-09T12:14:32.872Z,15.67
2023-01-09T12:18:13.650Z,16.25
2023-01-09T12:21:35.815Z,15.05
2023-01-09T12:24:57.257Z,15.98
2023-01-09T12:28:29.656Z,16.10
2023-01-09T12:31:45.377Z,15.43
2023-01-09T12:34:57.310Z,16.20
2023-01-09T12:38:05.166Z,16.20
2023-01-09T12:41:26.488Z,16.25
2023-01-09T12:44:47.151Z,17.17
2023-01-09T12:47:52.459Z,16.27
2023-01-09T12:51:03.533Z,17.60
2023-01-09T12:54:33.761Z,18.45
2023-01-09T12:57:42.038Z,16.95
2023-01-09T13:00:49.301Z,18.25
2023-01-09T13:03:58.270Z,18.70
2023-01-09T13:07:14.064Z,17.12
2023-01-09T13:10:38.042Z,18.70
2023-01-09T13:13:49.164Z,19.83
2023-01-09T13:16:55.000Z,18.17
2023-01-09T13:19:57.533Z,18.93
2023-01-09T13:23:02.992Z,17.80
2023-01-09T13:26:10.395Z,19.20
2023-01-09T13:29:19.730Z,17.80
2023-01-09T13:32:43.168Z,19.00
2023-01-09T13:35:58.019Z,17.13
2023-01-09T13:39:01.858Z,19.37
2023-01-09T13:42:36.064Z,19.92
2023-01-09T13:45:39.994Z,18.52
2023-01-09T13:48:43.061Z,18.12
2023-01-09T13:51:48.298Z,17.77
2023-01-09T13:54:59.959Z,17.23
2023-01-09T13:58:13.821Z,17.87
2023-01-09T14:01:27.465Z,18.52
2023-01-09T14:04:44.272Z,19.42
2023-01-09T14:07:52.532Z,18.83
2023-01-09T14:10:58.687Z,19.27
2023-01-09T14:14:04.599Z,19.15
2023-01-09T14:17:17.591Z,19.35
2023-01-09T14:20:28.178Z,19.37
2023-01-09T14:23:52.279Z,18.00
2023-01-09T14:26:58.283Z,17.90
2023-01-09T14:30:22.499Z,19.37
2023-01-09T14:33:29.822Z,18.02
2023-01-09T14:36:35.023Z,20.40
2023-01-09T14:39:44.996Z,20.87
2023-01-09T14:42:52.954Z,20.10
2023-01-09T14:46:03.972Z,21.60
2023-01-09T14:49:18.976Z,20.67
2023-01-09T14:52:26.416Z,21.27
2023-01-09T14:55:48.756Z,20.40
2023-01-09T14:59:03.857Z,20.77
2023-01-09T15:02:10.724Z,21.95
2023-01-09T15:05:17.389Z,20.90
2023-01-09T15:08:26.301Z,21.25
2023-01-09T15:11:29.688Z,21.73
2023-01-09T15:14:36.320Z,20.35
2023-01-09T15:17:40.233Z,23.08
2023-01-09T15:20:43.218Z,22.27
2023-01-09T15:23:45.752Z,21.15
2023-01-09T15:26:57.237Z,20.33
2023-01-09T15:30:15.984Z,20.15
2023-01-09T15:33:19.163Z,20.62
2023-01-09T15:36:27.249Z,21.75
2023-01-09T15:39:37.834Z,22.67
2023-01-09T15:42:57.306Z,23.77
2023-01-09T15:46:01.269Z,21.95
2023-01-09T15:49:04.088Z,22.33
2023-01-09T15:52:11.980Z,22.35
2023-01-09T15:55:44.189Z,22.27
2023-01-09T15:58:50.788Z,21.37
2023-01-09T16:02:20.908Z,21.77
2023-01-09T16:05:33.027Z,21.90
2023-01-09T16:08:42.762Z,20.37
2023-01-09T16:11:49.495Z,20.62
2023-01-09T16:14:55.780Z,20.80
2023-01-09T16:18:15.408Z,20.92
2023-01-09T16:21:37.123Z,21.48
2023-01-09T16:24:41.675Z,20.77
2023-01-09T16:27:44.213Z,21.83
2023-01-09T16:31:01.118Z,20.87
2023-01-09T16:34:06.891Z,22.65
2023-01-09T16:37:12.962Z,22.77
2023-01-09T16:40:18.202Z,21.90
2023-01-09T16:43:20.930Z,22.48
2023-01-09T16:46:23.932Z,24.17
2023-01-09T16:49:28.533Z,23.50
2023-01-09T16:52:30.937Z,24.90
2023-01-09T16:55:33.765Z,25.27
2023-01-09T16:58:36.399Z,24.63
2023-01-09T17:01:39.136Z,25.30
2023-01-09T17:04:41.547Z,26.35
2023-01-09T17:07:44.428Z,26.40
2023-01-09T17:10:46.879Z,27.30
2023-01-09T17:13:50.198Z,27.17
2023-01-09T17:16:52.762Z,25.13
2023-01-09T17:19:55.524Z,27.08
2023-01-09T17:22:58.059Z,24.37
2023-01-09T17:26:19.627Z,25.88
2023-01-09T17:29:22.297Z,27.05
2023-01-09T17:32:25.063Z,23.90
2023-01-09T17:35:27.608Z,25.85
2023-01-09T17:38:30.353Z,25.40
2023-01-09T17:41:33.606Z,25.85
2023-01-09T17:44:36.404Z,26.80
2023-01-09T17:47:38.951Z,24.93
2023-01-09T17:50:42.154Z,25.45
2023-01-09T17:53:44.593Z,26.50
2023-01-09T17:56:51.018Z,24.80
2023-01-09T17:59:53.467Z,27.05
2023-01-09T18:02:57.400Z,26.30
2023-01-09T18:06:00.446Z,24.45
2023-01-09T18:09:06.944Z,27.37
2023-01-09T18:12:09.775Z,28.73
2023-01-09T18:15:12.121Z,27.23
2023-01-09T18:18:16.291Z,28.30
2023-01-09T18:21:21.852Z,27.48
2023-01-09T18:24:24.492Z,29.25
2023-01-09T18:27:27.154Z,28.33
2023-01-09T18:30:30.048Z,29.92
2023-01-09T18:33:33.083Z,27.97
2023-01-09T18:36:35.946Z,28.58
2023-01-09T18:39:38.396Z,28.12
2023-01-09T18:42:42.060Z,27.92
2023-01-09T18:45:44.394Z,29.25
2023-01-09T18:48:54.655Z,27.20
2023-01-09T18:51:57.048Z,28.27
2023-01-09T18:55:00.313Z,30.37
2023-01-09T18:58:03.401Z,27.80
2023-01-09T19:01:06.236Z,28.83
2023-01-09T19:04:08.847Z,27.73
2023-01-09T19:07:11.891Z,28.85
2023-01-09T19:10:14.363Z,29.08
2023-01-09T19:13:17.137Z,29.37
2023-01-09T19:16:19.680Z,29.52
2023-01-09T19:19:22.557Z,29.47
2023-01-09T19:22:26.881Z,27.23
2023-01-09T19:25:30.168Z,27.87
2023-01-09T19:28:33.013Z,28.12
2023-01-09T19:31:36.407Z,28.95
2023-01-09T19:34:40.488Z,25.13
2023-01-09T19:37:43.811Z,26.90
2023-01-09T19:40:46.761Z,27.65
2023-01-09T19:43:50.181Z,27.20
2023-01-09T19:46:52.815Z,25.98
2023-01-09T19:49:55.578Z,24.23
2023-01-09T19:52:58.044Z,23.27
2023-01-09T19:56:10.669Z,23.70
2023-01-09T19:59:14.451Z,22.95
2023-01-09T20:02:17.556Z,20.17
2023-01-09T20:05:20.457Z,19.63
2023-01-09T20:08:22.973Z,18.75
2023-01-09T20:11:28.569Z,18.92
2023-01-09T20:14:31.320Z,18.40
2023-01-09T20:17:34.156Z,19.12
2023-01-09T20:20:36.604Z,18.47
2023-01-09T20:23:39.317Z,15.88
2023-01-09T20:26:42.111Z,18.52
2023-01-09T20:29:44.871Z,15.73
2023-01-09T20:32:49.588Z,17.20
2023-01-09T20:35:52.776Z,16.90
2023-01-09T20:39:01.953Z,16.48
2023-01-09T20:42:05.042Z,15.85
2023-01-09T20:45:08.042Z,14.27
2023-01-09T20:48:11.325Z,15.45
2023-01-09T20:51:14.436Z,15.43
2023-01-09T20:54:20.589Z,15.00
2023-01-09T20:57:23.113Z,15.85
2023-01-09T21:00:32.151Z,15.38
2023-01-09T21:03:34.725Z,17.00
2023-01-09T21:06:37.779Z,16.13
2023-01-09T21:09:40.259Z,15.93
2023-01-09T21:12:43.120Z,15.88
2023-01-09T21:15:45.465Z,17.00
2023-01-09T21:18:48.493Z,18.27
2023-01-09T21:21:53.113Z,16.57
2023-01-09T21:24:56.146Z,15.68
2023-01-09T21:27:58.642Z,17.25
2023-01-09T21:31:01.271Z,15.52
2023-01-09T21:34:06.547Z,17.12
2023-01-09T21:37:09.342Z,16.50
2023-01-09T21:40:18.724Z,16.92
2023-01-09T21:43:48.762Z,16.95
2023-01-09T21:46:57.550Z,17.75
2023-01-09T21:50:00.230Z,16.80
2023-01-09T21:53:03.074Z,16.17
2023-01-09T21:56:06.123Z,17.90
2023-01-09T21:59:08.930Z,17.70
2023-01-09T22:02:16.030Z,17.70
2023-01-09T22:05:18.785Z,17.20
2023-01-09T22:08:21.182Z,16.53
2023-01-09T22:11:23.981Z,16.25
2023-01-09T22:14:26.556Z,15.43
2023-01-09T22:17:29.354Z,15.75
2023-01-09T22:20:31.847Z,16.55
2023-01-09T22:23:34.585Z,14.83
2023-01-09T22:26:36.982Z,14.73
2023-01-09T22:29:39.689Z,15.27
2023-01-09T22:32:42.209Z,16.20
2023-01-09T22:35:44.944Z,17.00
2023-01-09T22:38:47.719Z,14.83
2023-01-09T22:41:52.440Z,14.90
2023-01-09T22:44:54.767Z,15.13
2023-01-09T22:47:57.707Z,14.60
2023-01-09T22:51:01.433Z,16.48
2023-01-09T22:54:04.219Z,14.50
2023-01-09T22:57:06.730Z,14.07
2023-01-09T23:00:10.748Z,13.10
2023-01-09T23:03:13.104Z,13.32
2023-01-09T23:06:23.287Z,14.02
2023-01-09T23:09:26.668Z,12.73
2023-01-09T23:12:29.278Z,14.18
2023-01-09T23:15:31.781Z,12.68
2023-01-09T23:18:34.948Z,12.95
2023-01-09T23:21:37.623Z,12.82
2023-01-09T23:24:40.301Z,12.90
2023-01-09T23:27:43.680Z,11.73
2023-01-09T23:30:46.848Z,12.75
2023-01-09T23:33:49.188Z,10.43
2023-01-09T23:36:52.555Z,11.20
2023-01-09T23:39:55.165Z,11.00
2023-01-09T23:43:10.352Z,12.20
2023-01-09T23:46:14.987Z,12.77
2023-01-09T23:49:17.762Z,12.63
2023-01-09T23:52:20.129Z,13.68
2023-01-09T23:55:23.027Z,13.13
2023-01-09T23:58:26.487Z,12.27
